Аэропорт: Абакан. Абакан

ICAO: UNAA

METAR:
2019-07-23 18:00:00
UNAA 231800Z 25001MPS 6000 NSC 15/13 Q1002 R02/090065 NOSIG RMK QFE729
METAR:
2019-07-23 17:00:00
TAF UNAA 231700Z 2318/2418 32003MPS 3100 BR SCT011 BKN017CB TEMPO 2322/2402 0300 -SHRA FG FM240300 35003G10MPS 6000 SCT020CB TEMPO 2405/2412 -TSRA